createdAt,value
2022-07-31T10:45:09.317Z,98877.31
2022-07-31T10:47:35.914Z,98874.16
2022-07-31T10:50:04.611Z,98864.13
2022-07-31T10:52:34.660Z,98871.09
2022-07-31T10:55:02.018Z,98860.22
2022-07-31T10:57:32.073Z,98863.78
2022-07-31T11:00:12.000Z,98869.00
2022-07-31T11:02:38.872Z,98859.25
2022-07-31T11:05:09.183Z,98852.53
2022-07-31T11:07:36.248Z,98857.91
2022-07-31T11:10:09.768Z,98848.06
2022-07-31T11:12:36.555Z,98848.41
2022-07-31T11:15:03.420Z,98855.50
2022-07-31T11:18:24.023Z,98852.84
2022-07-31T11:20:31.300Z,98859.09
2022-07-31T11:23:04.591Z,98860.03
2022-07-31T11:25:34.072Z,98866.31
2022-07-31T11:28:19.068Z,98856.06
2022-07-31T11:30:59.028Z,98852.78
2022-07-31T11:33:42.249Z,98855.38
2022-07-31T11:36:21.128Z,98848.78
2022-07-31T11:38:50.423Z,98842.72
2022-07-31T11:41:22.074Z,98831.53
2022-07-31T11:43:51.625Z,98824.59
2022-07-31T11:46:38.053Z,98823.69
2022-07-31T11:49:05.242Z,98816.28
2022-07-31T11:51:31.872Z,98818.06
2022-07-31T11:53:59.164Z,98818.44
2022-07-31T11:56:27.499Z,98815.31
2022-07-31T11:58:58.508Z,98817.28
2022-07-31T12:01:27.805Z,98812.06
2022-07-31T12:03:56.210Z,98807.25
2022-07-31T12:06:22.797Z,98808.63
2022-07-31T12:08:50.155Z,98808.88
2022-07-31T12:11:21.174Z,98799.84
2022-07-31T12:13:49.204Z,98797.91
2022-07-31T12:16:18.690Z,98787.47
2022-07-31T12:18:48.228Z,98771.19
2022-07-31T12:21:15.945Z,98785.97
2022-07-31T12:23:49.125Z,98780.84
2022-07-31T12:26:33.264Z,98794.72
2022-07-31T12:29:06.411Z,98790.03
2022-07-31T12:31:54.181Z,98778.56
2022-07-31T12:34:35.039Z,98778.78
2022-07-31T12:37:04.411Z,98776.75
2022-07-31T12:39:54.840Z,98766.09
2022-07-31T12:42:36.430Z,98768.91
2022-07-31T12:45:17.627Z,98786.19
2022-07-31T12:47:45.916Z,98764.03
2022-07-31T12:50:18.036Z,98757.81
2022-07-31T12:52:45.320Z,98760.03
2022-07-31T12:55:11.854Z,98760.75
2022-07-31T12:57:47.134Z,98762.88
2022-07-31T13:00:18.489Z,98757.25
2022-07-31T13:02:45.456Z,98758.16
2022-07-31T13:05:12.083Z,98758.50
2022-07-31T13:07:38.990Z,98738.53
2022-07-31T13:10:19.068Z,98757.94
2022-07-31T13:12:51.494Z,98749.34
2022-07-31T13:15:20.753Z,98749.47
2022-07-31T13:17:50.158Z,98747.28
2022-07-31T13:20:18.133Z,98739.19
2022-07-31T13:22:44.731Z,98736.41
2022-07-31T13:25:11.322Z,98733.53
2022-07-31T13:27:38.027Z,98731.72
2022-07-31T13:30:05.543Z,98733.88
2022-07-31T13:32:32.096Z,98730.03
2022-07-31T13:35:26.608Z,98721.91
2022-07-31T13:37:48.859Z,98712.75
2022-07-31T13:40:15.627Z,98714.41
2022-07-31T13:42:42.204Z,98723.31
2022-07-31T13:45:09.507Z,98709.84
2022-07-31T13:47:50.465Z,98709.72
2022-07-31T13:50:18.696Z,98714.56
2022-07-31T13:52:45.212Z,98709.72
2022-07-31T13:55:11.755Z,98717.09
2022-07-31T13:57:38.288Z,98700.16
2022-07-31T14:00:05.595Z,98704.88
2022-07-31T14:02:32.388Z,98702.38
2022-07-31T14:04:59.031Z,98693.75
2022-07-31T14:07:45.571Z,98704.25
2022-07-31T14:10:14.938Z,98700.47
2022-07-31T14:12:44.125Z,98696.22
2022-07-31T14:15:11.039Z,98695.16
2022-07-31T14:17:37.839Z,98696.31
2022-07-31T14:20:04.909Z,98695.00
2022-07-31T14:22:31.606Z,98697.72
2022-07-31T14:24:58.232Z,98695.19
2022-07-31T14:27:24.908Z,98700.44
2022-07-31T14:29:51.435Z,98698.25
2022-07-31T14:32:19.391Z,98688.09
2022-07-31T14:34:46.126Z,98693.97
2022-07-31T14:37:12.878Z,98680.81
2022-07-31T14:39:42.533Z,98683.09
2022-07-31T14:42:09.648Z,98682.41
2022-07-31T14:44:36.931Z,98675.69
2022-07-31T14:47:04.054Z,98684.56
2022-07-31T14:50:07.952Z,98685.38
2022-07-31T14:52:18.262Z,98685.16
2022-07-31T14:54:44.814Z,98686.69
2022-07-31T14:57:11.766Z,98675.50
2022-07-31T14:59:38.454Z,98674.97
2022-07-31T15:02:05.430Z,98674.47
2022-07-31T15:04:32.569Z,98675.88
2022-07-31T15:07:19.176Z,98679.53
2022-07-31T15:09:46.776Z,98674.28
2022-07-31T15:12:16.942Z,98668.09
2022-07-31T15:14:47.300Z,98670.91
2022-07-31T15:17:13.817Z,98669.94
2022-07-31T15:19:40.389Z,98670.13
2022-07-31T15:22:09.955Z,98664.81
2022-07-31T15:24:48.432Z,98662.41
2022-07-31T15:27:21.589Z,98666.94
2022-07-31T15:30:00.171Z,98667.16
2022-07-31T15:32:37.497Z,98675.38
2022-07-31T15:35:05.713Z,98668.72
2022-07-31T15:37:37.477Z,98671.03
2022-07-31T15:40:07.093Z,98663.41
2022-07-31T15:42:40.475Z,98661.00
2022-07-31T15:45:14.558Z,98653.84
2022-07-31T15:47:42.414Z,98653.06
2022-07-31T15:50:11.398Z,98655.13
2022-07-31T15:52:38.066Z,98651.91
2022-07-31T15:55:06.175Z,98655.78
2022-07-31T15:57:33.258Z,98653.19
2022-07-31T16:00:00.160Z,98649.78
2022-07-31T16:02:27.277Z,98656.06
2022-07-31T16:04:57.467Z,98655.19
2022-07-31T16:08:31.291Z,98655.56
2022-07-31T16:10:18.210Z,98666.59
2022-07-31T16:12:48.480Z,98665.00
2022-07-31T16:15:19.776Z,98672.75
2022-07-31T16:17:47.150Z,98680.75
2022-07-31T16:20:26.379Z,98687.88
2022-07-31T16:23:02.739Z,98686.59
2022-07-31T16:25:32.227Z,98688.28
2022-07-31T16:28:03.044Z,98696.59
2022-07-31T16:30:29.634Z,98689.88
2022-07-31T16:32:56.551Z,98697.59
2022-07-31T16:35:26.051Z,98696.38
2022-07-31T16:37:53.918Z,98694.19
2022-07-31T16:40:29.709Z,98694.28
2022-07-31T16:43:46.712Z,98695.56
2022-07-31T16:45:50.552Z,98686.97
2022-07-31T16:48:17.531Z,98673.16
2022-07-31T16:50:44.073Z,98678.56
2022-07-31T16:54:13.380Z,98691.28
2022-07-31T16:56:00.554Z,98698.41
2022-07-31T16:58:27.772Z,98697.38
2022-07-31T17:00:54.526Z,98700.59
2022-07-31T17:03:58.622Z,98696.13
2022-07-31T17:06:11.381Z,98701.84
2022-07-31T17:08:38.299Z,98692.19
2022-07-31T17:11:05.341Z,98704.59
2022-07-31T17:13:31.922Z,98709.34
2022-07-31T17:15:58.427Z,98712.72
2022-07-31T17:18:25.976Z,98713.03
2022-07-31T17:20:56.249Z,98709.69
2022-07-31T17:23:27.722Z,98708.34
2022-07-31T17:26:10.402Z,98704.88
2022-07-31T17:28:47.548Z,98701.75
2022-07-31T17:31:14.225Z,98710.81
2022-07-31T17:33:49.562Z,98708.91
2022-07-31T17:36:29.118Z,98718.97
2022-07-31T17:38:57.065Z,98718.63
2022-07-31T17:41:25.551Z,98714.03
2022-07-31T17:43:54.028Z,98718.53
2022-07-31T17:46:28.119Z,98711.16
2022-07-31T17:49:01.444Z,98708.44
2022-07-31T17:51:28.027Z,98708.78
2022-07-31T17:53:59.150Z,98704.59
2022-07-31T17:56:26.568Z,98707.34
2022-07-31T17:58:53.831Z,98698.25
2022-07-31T18:01:23.340Z,98699.03
2022-07-31T18:03:52.294Z,98699.97
2022-07-31T18:06:18.802Z,98694.88
2022-07-31T18:08:45.407Z,98695.28
2022-07-31T18:11:11.885Z,98699.72
2022-07-31T18:13:47.773Z,98693.38
2022-07-31T18:16:15.507Z,98699.31
2022-07-31T18:18:42.070Z,98700.13
2022-07-31T18:21:08.701Z,98698.66
2022-07-31T18:23:35.247Z,98687.09
2022-07-31T18:26:02.639Z,98691.91
2022-07-31T18:28:29.514Z,98692.50
2022-07-31T18:30:56.041Z,98685.31
2022-07-31T18:33:22.697Z,98679.56
2022-07-31T18:35:50.456Z,98683.31
2022-07-31T18:38:17.045Z,98674.09
2022-07-31T18:40:46.576Z,98676.63
2022-07-31T18:43:18.917Z,98674.44
2022-07-31T18:45:45.447Z,98671.69
2022-07-31T18:48:12.029Z,98677.78
2022-07-31T18:50:59.455Z,98681.91
2022-07-31T18:53:25.451Z,98681.69
2022-07-31T18:55:52.099Z,98683.75
2022-07-31T18:58:18.645Z,98675.31
2022-07-31T19:00:45.274Z,98671.75
2022-07-31T19:03:11.842Z,98670.44
2022-07-31T19:05:38.436Z,98679.53
2022-07-31T19:08:05.646Z,98678.16
2022-07-31T19:10:32.217Z,98673.50
2022-07-31T19:12:59.678Z,98676.72
2022-07-31T19:15:29.476Z,98675.81
2022-07-31T19:18:02.039Z,98678.13
2022-07-31T19:20:56.644Z,98674.94
2022-07-31T19:23:16.388Z,98670.34
2022-07-31T19:26:02.085Z,98670.47
2022-07-31T19:28:33.164Z,98677.66
2022-07-31T19:31:00.011Z,98683.56
2022-07-31T19:33:26.582Z,98668.69
2022-07-31T19:35:58.535Z,98674.00
2022-07-31T19:38:28.125Z,98676.31
2022-07-31T19:40:57.708Z,98670.47
2022-07-31T19:43:24.420Z,98672.34
2022-07-31T19:46:09.726Z,98675.13
2022-07-31T19:48:43.448Z,98674.47
2022-07-31T19:51:11.445Z,98669.16
2022-07-31T19:53:38.589Z,98664.69
2022-07-31T19:56:06.176Z,98666.53
2022-07-31T19:58:40.156Z,98658.41
2022-07-31T20:01:08.719Z,98668.22
2022-07-31T20:03:35.906Z,98657.28
2022-07-31T20:06:03.167Z,98649.59
2022-07-31T20:08:33.528Z,98649.00
2022-07-31T20:11:03.469Z,98648.59
2022-07-31T20:13:31.922Z,98654.56
2022-07-31T20:15:58.805Z,98646.25
2022-07-31T20:18:29.388Z,98640.50
2022-07-31T20:21:03.570Z,98648.59
2022-07-31T20:23:31.149Z,98645.97
2022-07-31T20:25:57.908Z,98644.84
2022-07-31T20:28:26.978Z,98651.53
2022-07-31T20:30:53.727Z,98648.78
2022-07-31T20:33:21.421Z,98651.53
2022-07-31T20:35:50.090Z,98648.22
2022-07-31T20:38:18.665Z,98652.13
2022-07-31T20:40:53.923Z,98640.00
2022-07-31T20:43:26.413Z,98642.22
2022-07-31T20:45:58.533Z,98652.75
2022-07-31T20:48:33.022Z,98645.75
2022-07-31T20:51:02.037Z,98649.72
2022-07-31T20:53:29.650Z,98647.91
2022-07-31T20:55:56.255Z,98650.47
2022-07-31T20:58:24.048Z,98646.81
2022-07-31T21:00:51.954Z,98660.22
2022-07-31T21:03:18.906Z,98663.91
2022-07-31T21:05:46.248Z,98664.66
2022-07-31T21:08:13.055Z,98660.72
2022-07-31T21:10:39.753Z,98657.09
2022-07-31T21:13:09.141Z,98659.72
2022-07-31T21:15:41.729Z,98652.88
2022-07-31T21:18:15.512Z,98651.41
2022-07-31T21:20:51.127Z,98645.44
2022-07-31T21:23:22.639Z,98637.72
2022-07-31T21:25:49.935Z,98634.88
2022-07-31T21:28:18.083Z,98632.34
2022-07-31T21:30:48.590Z,98638.91
2022-07-31T21:33:15.988Z,98637.38
2022-07-31T21:35:42.863Z,98639.66
2022-07-31T21:38:11.788Z,98649.66
2022-07-31T21:40:39.922Z,98642.13
2022-07-31T21:43:07.024Z,98645.78
2022-07-31T21:45:48.962Z,98639.69
2022-07-31T21:48:23.223Z,98649.50
2022-07-31T21:50:50.085Z,98644.38
2022-07-31T21:53:18.264Z,98636.97
2022-07-31T21:55:44.769Z,98637.91
2022-07-31T21:58:11.360Z,98634.06
2022-07-31T22:00:38.079Z,98642.88
2022-07-31T22:03:05.332Z,98640.53
2022-07-31T22:05:51.462Z,98632.19
2022-07-31T22:08:18.974Z,98632.56
2022-07-31T22:10:46.307Z,98633.91
2022-07-31T22:13:12.944Z,98632.31
2022-07-31T22:15:59.482Z,98628.63
2022-07-31T22:18:28.667Z,98640.28
2022-07-31T22:21:04.802Z,98632.38
2022-07-31T22:23:35.380Z,98635.84
2022-07-31T22:26:02.208Z,98645.16
2022-07-31T22:28:29.188Z,98647.09
2022-07-31T22:30:57.087Z,98648.91
2022-07-31T22:33:24.042Z,98648.59
2022-07-31T22:36:00.322Z,98647.59
2022-07-31T22:38:31.240Z,98647.47
2022-07-31T22:41:01.493Z,98654.72
2022-07-31T22:44:10.046Z,98655.50
2022-07-31T22:46:15.503Z,98648.22
2022-07-31T22:48:44.160Z,98656.59
2022-07-31T22:51:14.341Z,98657.69
2022-07-31T22:53:42.186Z,98652.16
2022-07-31T22:56:12.020Z,98655.78
2022-07-31T22:58:38.819Z,98659.41
2022-07-31T23:01:05.374Z,98657.66
2022-07-31T23:03:31.927Z,98658.56
2022-07-31T23:06:29.146Z,98663.81
2022-07-31T23:08:46.875Z,98651.09
2022-07-31T23:11:18.523Z,98661.41
2022-07-31T23:13:45.142Z,98656.13
2022-07-31T23:16:11.651Z,98663.47
2022-07-31T23:18:38.205Z,98653.69
2022-07-31T23:21:04.757Z,98660.69
2022-07-31T23:23:35.153Z,98652.63
2022-07-31T23:26:02.294Z,98661.28
2022-07-31T23:28:28.862Z,98663.22
2022-07-31T23:30:55.440Z,98661.22
2022-07-31T23:33:21.955Z,98668.22
2022-07-31T23:35:48.511Z,98662.00
2022-07-31T23:38:15.053Z,98661.13
2022-07-31T23:40:41.708Z,98666.56
2022-07-31T23:43:08.596Z,98667.47
2022-07-31T23:45:36.117Z,98667.59
2022-07-31T23:48:04.124Z,98664.75
2022-07-31T23:50:31.549Z,98666.50
2022-07-31T23:52:58.102Z,98662.38
2022-07-31T23:55:24.650Z,98662.38
2022-07-31T23:57:51.175Z,98663.66
